Time;durP1;ratioP1;P1;durP2;ratioP2;P2;SDS_P1;SDS_P2;PMS_P1;PMS_P2;Temp;Humidity;BMP_temperature;BMP_pressure;BME280_temperature;BME280_humidity;BME280_pressure;Samples;Min_cycle;Max_cycle;Signal;HPM_P1;HPM_P2
2022/07/13 00:01:26;;;;;;;4.07;1.30;;;;;;;;;;5119117;27;20244;-74
2022/07/13 00:03:53;;;;;;;2.78;1.10;;;;;;;;;;5113995;27;20221;-74
2022/07/13 00:06:20;;;;;;;2.42;1.20;;;;;;;;;;5124686;27;20194;-74
2022/07/13 00:08:47;;;;;;;3.45;1.38;;;;;;;;;;5119018;27;20651;-74
2022/07/13 00:11:16;;;;;;;3.08;1.10;;;;;;;;;;5122668;27;20237;-74
2022/07/13 00:13:43;;;;;;;5.90;1.20;;;;;;;;;;5112958;27;20625;-74
2022/07/13 00:16:10;;;;;;;4.40;1.38;;;;;;;;;;5115316;27;20655;-74
2022/07/13 00:18:37;;;;;;;3.35;1.42;;;;;;;;;;5112710;27;20256;-74
2022/07/13 00:21:05;;;;;;;4.53;1.35;;;;;;;;;;5120765;27;20280;-74
2022/07/13 00:23:32;;;;;;;2.35;1.17;;;;;;;;;;5131674;27;20248;-74
2022/07/13 00:25:59;;;;;;;4.32;1.27;;;;;;;;;;5126071;27;20739;-74
2022/07/13 00:28:27;;;;;;;3.13;1.40;;;;;;;;;;5132036;27;20291;-74
2022/07/13 00:30:55;;;;;;;1.55;1.30;;;;;;;;;;5115235;27;20285;-74
2022/07/13 00:33:22;;;;;;;2.65;1.30;;;;;;;;;;5124429;27;20280;-74
2022/07/13 00:35:49;;;;;;;3.72;1.60;;;;;;;;;;5127594;27;20783;-74
2022/07/13 00:38:16;;;;;;;2.95;1.50;;;;;;;;;;5113963;27;20229;-74
2022/07/13 00:40:43;;;;;;;2.80;1.50;;;;;;;;;;5113020;27;20237;-74
2022/07/13 00:43:10;;;;;;;4.22;1.30;;;;;;;;;;5119821;27;20280;-74
2022/07/13 00:45:39;;;;;;;6.05;1.40;;;;;;;;;;5118918;27;20282;-74
2022/07/13 00:48:07;;;;;;;6.32;1.58;;;;;;;;;;5116141;27;20232;-74
2022/07/13 00:50:35;;;;;;;4.22;1.50;;;;;;;;;;5130752;27;20244;-74
2022/07/13 00:53:02;;;;;;;2.08;1.45;;;;;;;;;;5133150;27;20593;-74
2022/07/13 00:55:29;;;;;;;4.45;1.30;;;;;;;;;;5119265;27;20775;-74
2022/07/13 00:57:57;;;;;;;3.25;1.48;;;;;;;;;;5113456;27;20669;-74
2022/07/13 01:00:25;;;;;;;2.10;1.40;;;;;;;;;;5121502;27;20284;-74
2022/07/13 01:02:54;;;;;;;3.03;1.38;;;;;;;;;;5126785;27;20788;-74
2022/07/13 01:05:21;;;;;;;2.40;1.40;;;;;;;;;;5115971;27;20687;-74
2022/07/13 01:07:49;;;;;;;3.20;1.42;;;;;;;;;;5117552;27;20305;-74
2022/07/13 01:10:16;;;;;;;2.55;1.17;;;;;;;;;;5126749;27;20292;-74
2022/07/13 01:12:43;;;;;;;2.47;1.23;;;;;;;;;;5126294;27;20280;-74
2022/07/13 01:15:11;;;;;;;3.17;1.50;;;;;;;;;;5124516;28;20248;-74
2022/07/13 01:17:38;;;;;;;4.80;1.30;;;;;;;;;;5128132;27;20240;-74
2022/07/13 01:20:08;;;;;;;3.97;1.27;;;;;;;;;;5123764;27;20247;-74
2022/07/13 01:22:36;;;;;;;2.67;1.30;;;;;;;;;;5118513;28;20221;-74
2022/07/13 01:25:06;;;;;;;5.63;1.42;;;;;;;;;;5114489;28;20227;-74
2022/07/13 01:27:34;;;;;;;1.40;1.23;;;;;;;;;;5122036;28;20233;-74
2022/07/13 01:30:02;;;;;;;2.72;1.17;;;;;;;;;;5125485;27;20209;-74
2022/07/13 01:32:29;;;;;;;3.45;1.40;;;;;;;;;;5124112;28;20859;-74
2022/07/13 01:34:56;;;;;;;2.90;1.45;;;;;;;;;;5121928;28;20285;-74
2022/07/13 01:37:23;;;;;;;6.05;1.80;;;;;;;;;;5127534;27;20225;-74
2022/07/13 01:39:51;;;;;;;3.17;1.25;;;;;;;;;;5130095;27;20197;-74
2022/07/13 01:42:19;;;;;;;1.60;1.40;;;;;;;;;;5133602;27;20283;-74
2022/07/13 01:44:47;;;;;;;3.58;1.65;;;;;;;;;;5126064;27;20283;-74
2022/07/13 01:47:14;;;;;;;3.42;1.50;;;;;;;;;;5118265;27;20229;-74
2022/07/13 01:49:42;;;;;;;4.70;1.50;;;;;;;;;;5133085;27;20228;-74
2022/07/13 01:52:09;;;;;;;3.78;1.63;;;;;;;;;;5115992;27;20232;-74
2022/07/13 01:54:36;;;;;;;4.15;1.45;;;;;;;;;;5123506;27;20689;-74
2022/07/13 01:57:03;;;;;;;4.25;1.55;;;;;;;;;;5129056;27;20308;-74
2022/07/13 01:59:32;;;;;;;3.92;1.70;;;;;;;;;;5125377;27;20680;-74
2022/07/13 02:01:59;;;;;;;3.17;1.52;;;;;;;;;;5128823;27;20292;-74
2022/07/13 02:04:26;;;;;;;3.53;1.40;;;;;;;;;;5132182;27;20252;-74
2022/07/13 02:06:54;;;;;;;3.60;1.70;;;;;;;;;;5135939;27;20240;-74
2022/07/13 02:09:21;;;;;;;5.53;1.60;;;;;;;;;;5124304;27;20301;-74
2022/07/13 02:11:48;;;;;;;4.43;1.70;;;;;;;;;;5118999;27;20233;-74
2022/07/13 02:14:15;;;;;;;4.43;1.90;;;;;;;;;;5133085;27;20300;-74
2022/07/13 02:16:44;;;;;;;2.75;1.42;;;;;;;;;;5135847;27;20229;-74
2022/07/13 02:19:11;;;;;;;2.27;1.50;;;;;;;;;;5128478;27;20292;-74
2022/07/13 02:21:38;;;;;;;7.50;1.80;;;;;;;;;;5131206;27;20200;-74
2022/07/13 02:24:06;;;;;;;2.73;1.57;;;;;;;;;;5127333;27;20280;-74
2022/07/13 02:26:33;;;;;;;2.20;2.00;;;;;;;;;;5128893;27;20229;-74
2022/07/13 02:29:00;;;;;;;2.45;1.92;;;;;;;;;;5129926;27;20721;-74
2022/07/13 02:31:27;;;;;;;2.53;1.53;;;;;;;;;;5128704;27;20285;-74
2022/07/13 02:33:56;;;;;;;5.47;1.67;;;;;;;;;;5127577;27;20281;-73
2022/07/13 02:36:23;;;;;;;3.97;1.70;;;;;;;;;;5116010;27;20296;-74
2022/07/13 02:38:50;;;;;;;4.63;1.80;;;;;;;;;;5115670;28;20233;-74
2022/07/13 02:41:18;;;;;;;3.53;1.80;;;;;;;;;;5114871;27;20284;-74
2022/07/13 02:43:45;;;;;;;4.00;1.90;;;;;;;;;;5117954;27;20237;-74
2022/07/13 02:46:12;;;;;;;3.00;1.47;;;;;;;;;;5117865;27;20237;-73
2022/07/13 02:48:39;;;;;;;4.13;1.80;;;;;;;;;;5117678;27;20289;-73
2022/07/13 02:51:08;;;;;;;4.53;1.80;;;;;;;;;;5129985;27;20792;-74
2022/07/13 02:53:35;;;;;;;3.10;2.00;;;;;;;;;;5125627;27;20281;-74
2022/07/13 02:56:02;;;;;;;7.53;2.13;;;;;;;;;;5120033;27;20280;-74
2022/07/13 02:58:29;;;;;;;6.27;1.70;;;;;;;;;;5125408;27;20281;-74
2022/07/13 03:00:57;;;;;;;4.63;1.90;;;;;;;;;;5121828;27;20208;-73
2022/07/13 03:03:24;;;;;;;2.70;1.70;;;;;;;;;;5120309;27;20316;-73
2022/07/13 03:05:51;;;;;;;3.97;1.80;;;;;;;;;;5121087;27;20205;-74
2022/07/13 03:08:20;;;;;;;3.80;2.30;;;;;;;;;;5127145;27;20680;-74
2022/07/13 03:10:47;;;;;;;2.30;1.93;;;;;;;;;;5116812;27;20197;-74
2022/07/13 03:13:14;;;;;;;3.37;2.07;;;;;;;;;;5126626;27;20251;-73
2022/07/13 03:15:41;;;;;;;2.53;2.00;;;;;;;;;;5120872;27;20201;-74
2022/07/13 03:18:08;;;;;;;3.03;1.97;;;;;;;;;;5126992;27;20680;-73
2022/07/13 03:20:36;;;;;;;6.47;2.40;;;;;;;;;;5117896;27;20205;-74
2022/07/13 03:23:03;;;;;;;3.77;2.47;;;;;;;;;;5122202;27;20240;-73
2022/07/13 03:25:32;;;;;;;2.27;2.00;;;;;;;;;;5125171;27;20212;-73
2022/07/13 03:27:59;;;;;;;4.17;1.93;;;;;;;;;;5131106;27;20680;-74
2022/07/13 03:30:26;;;;;;;2.30;1.50;;;;;;;;;;5116457;27;20202;-74
2022/07/13 03:32:53;;;;;;;2.47;1.70;;;;;;;;;;5131761;27;20251;-74
2022/07/13 03:35:21;;;;;;;2.00;1.80;;;;;;;;;;5129146;27;20580;-73
2022/07/13 03:37:48;;;;;;;2.97;2.10;;;;;;;;;;5123448;27;20248;-73
2022/07/13 03:40:15;;;;;;;3.47;2.13;;;;;;;;;;5115669;27;20284;-74
2022/07/13 03:42:44;;;;;;;3.80;2.57;;;;;;;;;;5125167;27;20664;-73
2022/07/13 03:45:11;;;;;;;6.57;2.93;;;;;;;;;;5124330;27;20280;-73
2022/07/13 03:47:38;;;;;;;4.73;2.53;;;;;;;;;;5131294;27;20221;-74
2022/07/13 03:50:06;;;;;;;2.63;2.30;;;;;;;;;;5125312;27;20228;-74
2022/07/13 03:52:33;;;;;;;5.43;2.20;;;;;;;;;;5120890;27;20197;-73
2022/07/13 03:55:00;;;;;;;2.93;2.17;;;;;;;;;;5120606;27;20226;-73
2022/07/13 03:57:27;;;;;;;4.50;2.37;;;;;;;;;;5122403;27;20245;-74
2022/07/13 03:59:56;;;;;;;4.27;2.10;;;;;;;;;;5124661;27;20288;-74
2022/07/13 04:02:24;;;;;;;6.00;2.10;;;;;;;;;;5118763;27;20292;-74
2022/07/13 04:04:51;;;;;;;5.57;2.10;;;;;;;;;;5126296;27;20225;-73
2022/07/13 04:07:18;;;;;;;4.90;2.30;;;;;;;;;;5113295;27;20281;-73
2022/07/13 04:09:45;;;;;;;4.90;2.20;;;;;;;;;;5113777;27;20685;-73
2022/07/13 04:12:13;;;;;;;7.80;2.70;;;;;;;;;;5128639;27;20201;-73
2022/07/13 04:14:40;;;;;;;6.47;2.53;;;;;;;;;;5115950;27;20297;-73
2022/07/13 04:17:09;;;;;;;5.77;2.60;;;;;;;;;;5121699;27;20260;-73
2022/07/13 04:19:36;;;;;;;7.00;2.40;;;;;;;;;;5126192;27;20667;-74
2022/07/13 04:22:03;;;;;;;6.87;2.70;;;;;;;;;;5124404;27;20201;-74
2022/07/13 04:24:31;;;;;;;7.57;2.90;;;;;;;;;;5133168;27;20200;-74
2022/07/13 04:26:58;;;;;;;7.43;2.90;;;;;;;;;;5118585;27;20277;-74
2022/07/13 04:29:25;;;;;;;8.80;3.37;;;;;;;;;;5132192;27;20228;-73
2022/07/13 04:31:53;;;;;;;6.50;3.10;;;;;;;;;;5129530;27;20224;-73
2022/07/13 04:34:22;;;;;;;5.87;2.90;;;;;;;;;;5112668;28;20225;-73
2022/07/13 04:36:49;;;;;;;4.60;3.10;;;;;;;;;;5117436;27;20700;-74
2022/07/13 04:39:16;;;;;;;3.30;2.50;;;;;;;;;;5121952;27;20243;-74
2022/07/13 04:41:43;;;;;;;5.80;2.83;;;;;;;;;;5123934;27;20197;-74
2022/07/13 04:44:11;;;;;;;5.53;2.80;;;;;;;;;;5122806;27;20244;-74
2022/07/13 04:46:38;;;;;;;3.70;3.00;;;;;;;;;;5125450;27;20635;-73
2022/07/13 04:49:05;;;;;;;5.40;3.10;;;;;;;;;;5122972;27;20233;-74
2022/07/13 04:51:35;;;;;;;7.80;3.27;;;;;;;;;;5124993;27;20257;-74
2022/07/13 04:54:02;;;;;;;4.67;3.30;;;;;;;;;;5115802;27;20229;-74
2022/07/13 04:56:30;;;;;;;4.87;3.10;;;;;;;;;;5118005;27;20705;-74
2022/07/13 04:58:57;;;;;;;8.17;3.80;;;;;;;;;;5122129;27;20276;-73
2022/07/13 05:01:24;;;;;;;5.43;3.60;;;;;;;;;;5111095;28;20281;-73
2022/07/13 05:03:52;;;;;;;17.17;4.33;;;;;;;;;;5123411;27;20320;-74
2022/07/13 05:06:19;;;;;;;16.53;4.03;;;;;;;;;;5116952;27;20587;-74
2022/07/13 05:08:48;;;;;;;21.10;4.97;;;;;;;;;;5126479;27;20616;-75
2022/07/13 05:11:15;;;;;;;10.47;3.80;;;;;;;;;;5120781;27;20233;-75
2022/07/13 05:13:42;;;;;;;10.97;3.90;;;;;;;;;;5126510;27;20292;-75
2022/07/13 05:16:10;;;;;;;9.17;3.50;;;;;;;;;;5131313;27;20606;-75
2022/07/13 05:18:37;;;;;;;5.60;3.13;;;;;;;;;;5131460;27;20296;-75
2022/07/13 05:21:04;;;;;;;6.90;3.40;;;;;;;;;;5116601;28;20228;-74
2022/07/13 05:23:32;;;;;;;4.93;3.80;;;;;;;;;;5128849;27;20285;-75
2022/07/13 05:26:00;;;;;;;7.50;4.43;;;;;;;;;;5118313;28;20200;-75
2022/07/13 05:28:27;;;;;;;6.57;2.83;;;;;;;;;;5123817;27;20231;-75
2022/07/13 05:30:55;;;;;;;5.00;2.40;;;;;;;;;;5118226;27;20233;-75
2022/07/13 05:33:22;;;;;;;6.43;2.80;;;;;;;;;;5123754;28;20241;-75
2022/07/13 05:35:49;;;;;;;7.53;2.80;;;;;;;;;;5122470;27;20600;-75
2022/07/13 05:38:17;;;;;;;7.43;2.67;;;;;;;;;;5123818;28;20252;-74
2022/07/13 05:40:44;;;;;;;5.10;2.40;;;;;;;;;;5125069;27;20294;-75
2022/07/13 05:43:13;;;;;;;2.92;2.60;;;;;;;;;;5113996;28;20197;-75
2022/07/13 05:45:40;;;;;;;4.65;2.47;;;;;;;;;;5122779;28;20229;-74
2022/07/13 05:48:08;;;;;;;5.35;2.45;;;;;;;;;;5114875;28;20734;-75
2022/07/13 05:50:35;;;;;;;4.45;2.70;;;;;;;;;;5118721;28;20221;-75
2022/07/13 05:53:02;;;;;;;6.35;2.90;;;;;;;;;;5117940;28;20753;-75
2022/07/13 05:55:29;;;;;;;4.75;2.78;;;;;;;;;;5118446;28;20724;-74
2022/07/13 05:57:56;;;;;;;5.13;2.92;;;;;;;;;;5115484;28;20304;-75
2022/07/13 06:00:25;;;;;;;3.60;2.47;;;;;;;;;;5115420;28;20228;-75
2022/07/13 06:02:53;;;;;;;4.70;2.78;;;;;;;;;;5118761;27;20256;-75
2022/07/13 06:05:21;;;;;;;3.05;2.75;;;;;;;;;;5127237;28;20254;-75
2022/07/13 06:07:48;;;;;;;6.72;2.90;;;;;;;;;;5116643;27;20233;-75
2022/07/13 06:10:16;;;;;;;5.70;2.90;;;;;;;;;;5132046;27;20201;-74
2022/07/13 06:12:43;;;;;;;3.60;2.88;;;;;;;;;;5120158;27;20236;-75
2022/07/13 06:15:10;;;;;;;5.78;2.90;;;;;;;;;;5124898;28;20279;-75
2022/07/13 06:17:39;;;;;;;4.78;2.40;;;;;;;;;;5127138;27;20304;-75
2022/07/13 06:20:07;;;;;;;3.65;2.40;;;;;;;;;;5124441;27;20288;-75
2022/07/13 06:22:34;;;;;;;4.60;2.75;;;;;;;;;;5119285;27;20197;-75
2022/07/13 06:25:03;;;;;;;5.28;2.50;;;;;;;;;;5138486;27;20231;-75
2022/07/13 06:27:30;;;;;;;4.22;2.58;;;;;;;;;;5130221;27;20194;-74
2022/07/13 06:29:57;;;;;;;5.47;2.53;;;;;;;;;;5118066;27;20285;-75
2022/07/13 06:32:24;;;;;;;4.15;2.50;;;;;;;;;;5129935;27;20201;-75
2022/07/13 06:34:54;;;;;;;3.53;2.30;;;;;;;;;;5128871;27;20251;-74
2022/07/13 06:37:21;;;;;;;4.15;2.47;;;;;;;;;;5131879;27;20279;-75
2022/07/13 06:39:48;;;;;;;2.38;1.90;;;;;;;;;;5128369;27;20924;-75
2022/07/13 06:42:15;;;;;;;4.13;2.15;;;;;;;;;;5129590;27;20320;-75
2022/07/13 06:44:42;;;;;;;4.43;2.53;;;;;;;;;;5128364;27;20276;-75
2022/07/13 06:47:09;;;;;;;3.60;2.65;;;;;;;;;;5127874;27;20303;-75
2022/07/13 06:49:37;;;;;;;7.55;2.83;;;;;;;;;;5126604;27;20225;-75
2022/07/13 06:52:06;;;;;;;6.30;2.88;;;;;;;;;;5132048;27;20248;-75
2022/07/13 06:54:33;;;;;;;4.10;2.47;;;;;;;;;;5115843;27;20229;-75
2022/07/13 06:57:00;;;;;;;2.72;2.53;;;;;;;;;;5135448;27;20295;-75
2022/07/13 06:59:27;;;;;;;3.22;2.47;;;;;;;;;;5131621;27;20332;-75
2022/07/13 07:01:54;;;;;;;4.57;2.45;;;;;;;;;;5118261;27;20249;-73
2022/07/13 07:04:22;;;;;;;5.18;2.97;;;;;;;;;;5132013;27;20308;-74
2022/07/13 07:06:49;;;;;;;5.20;2.20;;;;;;;;;;5124453;27;20224;-75
2022/07/13 07:09:17;;;;;;;3.08;2.50;;;;;;;;;;5126364;27;20288;-74
2022/07/13 07:11:46;;;;;;;2.75;2.30;;;;;;;;;;5127014;27;20231;-75
2022/07/13 07:14:13;;;;;;;4.85;2.30;;;;;;;;;;5131102;27;20656;-75
2022/07/13 07:16:42;;;;;;;3.03;2.28;;;;;;;;;;5135004;27;20246;-75
2022/07/13 07:19:09;;;;;;;3.72;2.80;;;;;;;;;;5132477;27;20224;-75
2022/07/13 07:21:36;;;;;;;3.58;3.00;;;;;;;;;;5124680;27;20229;-75
2022/07/13 07:24:04;;;;;;;3.90;2.80;;;;;;;;;;5115170;28;20288;-75
2022/07/13 07:26:32;;;;;;;3.40;2.60;;;;;;;;;;5114778;28;20223;-75
2022/07/13 07:29:00;;;;;;;4.97;2.10;;;;;;;;;;5114920;28;20232;-75
2022/07/13 07:31:27;;;;;;;3.85;2.03;;;;;;;;;;5114252;28;20677;-75
2022/07/13 07:33:54;;;;;;;5.10;2.30;;;;;;;;;;5125294;27;20201;-75
2022/07/13 07:36:21;;;;;;;4.95;2.97;;;;;;;;;;5133915;27;20237;-75
2022/07/13 07:38:49;;;;;;;5.55;2.22;;;;;;;;;;5120973;27;20216;-75
2022/07/13 07:41:16;;;;;;;2.35;1.85;;;;;;;;;;5117516;27;20207;-75
2022/07/13 07:43:46;;;;;;;5.63;2.08;;;;;;;;;;5113946;28;20232;-75
2022/07/13 07:46:13;;;;;;;5.00;2.10;;;;;;;;;;5118231;27;20200;-75
2022/07/13 07:48:40;;;;;;;8.57;2.10;;;;;;;;;;5127613;27;20258;-76
2022/07/13 07:51:08;;;;;;;6.38;2.20;;;;;;;;;;5117287;27;20259;-75
2022/07/13 07:53:35;;;;;;;7.32;2.20;;;;;;;;;;5116762;27;20288;-75
2022/07/13 07:56:02;;;;;;;4.15;2.15;;;;;;;;;;5124220;27;20228;-75
2022/07/13 07:58:29;;;;;;;3.92;1.90;;;;;;;;;;5120052;27;20219;-75
2022/07/13 08:00:58;;;;;;;4.60;1.80;;;;;;;;;;5127349;27;20284;-75
2022/07/13 08:03:25;;;;;;;4.05;1.77;;;;;;;;;;5134308;27;20266;-75
2022/07/13 08:05:55;;;;;;;3.95;1.83;;;;;;;;;;5134109;27;20243;-75
2022/07/13 08:08:22;;;;;;;5.15;2.00;;;;;;;;;;5125367;27;20189;-75
2022/07/13 08:10:49;;;;;;;3.00;2.10;;;;;;;;;;5121275;27;20673;-75
2022/07/13 08:13:16;;;;;;;2.45;1.80;;;;;;;;;;5129361;27;20250;-75
2022/07/13 08:15:44;;;;;;;4.05;2.03;;;;;;;;;;5133964;27;20228;-75
2022/07/13 08:18:12;;;;;;;3.67;2.00;;;;;;;;;;5131561;27;20721;-76
2022/07/13 08:20:39;;;;;;;4.47;2.00;;;;;;;;;;5133399;27;20236;-75
2022/07/13 08:23:50;;;;;;;4.53;1.70;;;;;;;;;;5132398;27;20239;-76
2022/07/13 08:25:54;;;;;;;4.85;1.80;;;;;;;;;;5120292;27;20755;-76
2022/07/13 08:28:21;;;;;;;4.10;2.00;;;;;;;;;;5125923;27;20224;-76
2022/07/13 08:30:49;;;;;;;3.80;2.03;;;;;;;;;;5132667;27;20196;-76
2022/07/13 08:33:17;;;;;;;3.60;1.83;;;;;;;;;;5119457;27;20667;-76
2022/07/13 08:38:38;;;;;;;4.55;1.77;;;;;;;;;;5118248;27;20354;-75
2022/07/13 08:41:06;;;;;;;6.32;1.98;;;;;;;;;;5116249;27;20189;-75
2022/07/13 08:43:34;;;;;;;2.85;2.10;;;;;;;;;;5120194;27;20296;-76
2022/07/13 08:46:04;;;;;;;2.60;1.80;;;;;;;;;;5129834;27;20197;-76
2022/07/13 08:48:35;;;;;;;6.38;1.65;;;;;;;;;;5115902;27;20280;-76
2022/07/13 08:51:03;;;;;;;4.22;1.95;;;;;;;;;;5127453;27;20252;-76
2022/07/13 08:53:30;;;;;;;5.57;2.15;;;;;;;;;;5113165;27;20208;-75
2022/07/13 08:55:58;;;;;;;3.55;2.15;;;;;;;;;;5113051;28;20415;-75
2022/07/13 08:58:25;;;;;;;3.92;2.10;;;;;;;;;;5120439;27;20217;-76
2022/07/13 09:00:52;;;;;;;3.35;1.85;;;;;;;;;;5127790;27;20224;-76
2022/07/13 09:03:20;;;;;;;2.40;1.48;;;;;;;;;;5131266;27;20255;-77
2022/07/13 09:05:48;;;;;;;4.30;1.60;;;;;;;;;;5127762;27;20205;-76
2022/07/13 09:08:16;;;;;;;8.55;1.77;;;;;;;;;;5126608;27;20716;-76
2022/07/13 09:10:52;;;;;;;4.32;1.77;;;;;;;;;;5115902;27;20248;-75
2022/07/13 09:13:33;;;;;;;3.15;1.73;;;;;;;;;;5128231;27;20259;-74
2022/07/13 09:16:13;;;;;;;2.80;1.73;;;;;;;;;;5133288;27;20278;-76
2022/07/13 09:18:40;;;;;;;3.03;1.60;;;;;;;;;;5126331;27;20350;-76
2022/07/13 09:21:09;;;;;;;3.38;1.70;;;;;;;;;;5133369;27;20228;-76
2022/07/13 09:23:36;;;;;;;3.65;1.80;;;;;;;;;;5133348;27;20232;-76
2022/07/13 09:26:03;;;;;;;2.85;1.67;;;;;;;;;;5123749;27;20625;-76
2022/07/13 09:28:42;;;;;;;3.72;2.15;;;;;;;;;;5112903;28;20240;-76
2022/07/13 09:31:09;;;;;;;5.35;1.90;;;;;;;;;;5112544;28;20204;-76
2022/07/13 09:33:37;;;;;;;5.05;1.65;;;;;;;;;;5126782;28;20231;-76
2022/07/13 09:36:11;;;;;;;2.00;1.80;;;;;;;;;;5120947;27;20201;-76
2022/07/13 09:38:39;;;;;;;5.07;1.90;;;;;;;;;;5127645;28;20235;-76
2022/07/13 09:41:17;;;;;;;2.20;1.60;;;;;;;;;;5119300;27;20217;-76
2022/07/13 09:46:39;;;;;;;4.55;1.70;;;;;;;;;;5132178;28;20199;-76
2022/07/13 09:49:06;;;;;;;3.20;1.70;;;;;;;;;;5125811;27;20189;-76
2022/07/13 09:51:35;;;;;;;2.60;1.40;;;;;;;;;;5117927;28;20224;-76
2022/07/13 09:54:03;;;;;;;3.15;1.70;;;;;;;;;;5123151;27;20283;-76
2022/07/13 09:56:32;;;;;;;1.73;1.60;;;;;;;;;;5121208;28;20256;-76
2022/07/13 09:59:03;;;;;;;2.33;1.67;;;;;;;;;;5126850;27;20262;-76
2022/07/13 10:01:30;;;;;;;2.72;1.35;;;;;;;;;;5124581;27;20208;-76
2022/07/13 10:03:58;;;;;;;2.78;1.40;;;;;;;;;;5126175;27;20331;-76
2022/07/13 10:06:27;;;;;;;4.05;1.50;;;;;;;;;;5124976;27;20299;-76
2022/07/13 10:08:56;;;;;;;3.80;1.52;;;;;;;;;;5116655;27;20231;-76
2022/07/13 10:11:23;;;;;;;3.75;1.52;;;;;;;;;;5117277;27;20598;-76
2022/07/13 10:13:50;;;;;;;2.15;1.60;;;;;;;;;;5136113;27;20215;-76
2022/07/13 10:16:18;;;;;;;1.42;1.30;;;;;;;;;;5142078;27;20288;-76
2022/07/13 10:18:45;;;;;;;3.08;1.52;;;;;;;;;;5119723;27;20699;-76
2022/07/13 10:21:14;;;;;;;2.38;1.50;;;;;;;;;;5124460;27;20192;-76
2022/07/13 10:23:42;;;;;;;3.10;1.50;;;;;;;;;;5135647;27;20846;-76
2022/07/13 10:26:24;;;;;;;3.25;1.63;;;;;;;;;;5136118;27;20277;-76
2022/07/13 10:29:05;;;;;;;2.13;1.30;;;;;;;;;;5115368;28;20189;-76
2022/07/13 10:31:36;;;;;;;2.08;1.50;;;;;;;;;;5115045;28;21063;-76
2022/07/13 10:34:03;;;;;;;3.97;1.67;;;;;;;;;;5128456;27;20556;-76
2022/07/13 10:36:50;;;;;;;3.00;1.40;;;;;;;;;;5117330;27;20898;-76
2022/07/13 10:39:17;;;;;;;1.92;1.50;;;;;;;;;;5122294;27;20212;-76
2022/07/13 10:41:57;;;;;;;2.85;1.50;;;;;;;;;;5132922;27;20740;-76
2022/07/13 10:44:32;;;;;;;3.17;1.60;;;;;;;;;;5133918;27;20261;-76
2022/07/13 10:46:59;;;;;;;3.80;1.45;;;;;;;;;;5127079;27;20278;-76
2022/07/13 10:49:36;;;;;;;3.25;1.50;;;;;;;;;;5133658;27;20196;-75
2022/07/13 10:52:22;;;;;;;1.50;1.40;;;;;;;;;;5115474;28;20221;-76
2022/07/13 10:55:04;;;;;;;2.05;1.70;;;;;;;;;;5123464;27;20228;-77
2022/07/13 10:57:33;;;;;;;1.70;1.27;;;;;;;;;;5123758;27;20628;-76
2022/07/13 11:00:01;;;;;;;4.20;2.05;;;;;;;;;;5123499;27;20220;-76
2022/07/13 11:02:47;;;;;;;4.72;3.35;;;;;;;;;;5126321;27;20707;-76
2022/07/13 11:05:14;;;;;;;4.00;1.42;;;;;;;;;;5122735;27;20235;-76
2022/07/13 11:07:42;;;;;;;3.95;2.35;;;;;;;;;;5125991;27;20208;-76
2022/07/13 11:10:15;;;;;;;5.68;2.92;;;;;;;;;;5130047;27;20228;-76
2022/07/13 11:12:58;;;;;;;1.95;1.50;;;;;;;;;;5123196;27;20288;-76
2022/07/13 11:15:25;;;;;;;2.08;1.30;;;;;;;;;;5115946;27;20292;-76
2022/07/13 11:17:53;;;;;;;2.17;1.35;;;;;;;;;;5128497;27;20235;-76
2022/07/13 11:20:21;;;;;;;1.98;1.65;;;;;;;;;;5130579;27;20220;-76
2022/07/13 11:25:50;;;;;;;2.83;1.35;;;;;;;;;;5118207;27;20199;-76
2022/07/13 11:28:31;;;;;;;3.65;1.48;;;;;;;;;;5119005;27;20197;-76
2022/07/13 11:30:58;;;;;;;2.88;1.75;;;;;;;;;;5123167;27;20295;-76
2022/07/13 11:33:26;;;;;;;4.00;1.50;;;;;;;;;;5125671;27;20303;-75
2022/07/13 11:35:54;;;;;;;3.15;1.90;;;;;;;;;;5134943;27;20228;-75
2022/07/13 11:38:22;;;;;;;1.40;1.30;;;;;;;;;;5135296;27;20260;-75
2022/07/13 11:40:49;;;;;;;1.30;1.20;;;;;;;;;;5134954;27;20526;-75
2022/07/13 11:43:16;;;;;;;2.90;1.70;;;;;;;;;;5134854;27;20604;-76
2022/07/13 11:45:45;;;;;;;1.50;1.33;;;;;;;;;;5135147;27;20200;-75
2022/07/13 11:48:16;;;;;;;1.27;1.17;;;;;;;;;;5133891;27;20200;-76
2022/07/13 11:50:44;;;;;;;2.53;1.50;;;;;;;;;;5133396;27;20224;-75
2022/07/13 11:53:21;;;;;;;3.60;1.17;;;;;;;;;;5134098;27;20629;-76
2022/07/13 11:55:48;;;;;;;3.83;1.30;;;;;;;;;;5134458;27;20196;-75
2022/07/13 11:58:23;;;;;;;2.50;1.23;;;;;;;;;;5133844;27;20291;-76
2022/07/13 12:00:52;;;;;;;1.90;1.23;;;;;;;;;;5114626;27;20637;-76
2022/07/13 12:03:26;;;;;;;1.83;1.13;;;;;;;;;;5113695;28;20256;-75
2022/07/13 12:05:53;;;;;;;2.83;1.10;;;;;;;;;;5113816;28;20228;-75
2022/07/13 12:08:21;;;;;;;3.30;1.30;;;;;;;;;;5114021;28;20621;-75
2022/07/13 12:10:48;;;;;;;4.35;1.30;;;;;;;;;;5112919;28;20280;-75
2022/07/13 12:13:15;;;;;;;1.77;1.45;;;;;;;;;;5112659;27;20283;-76
2022/07/13 12:15:42;;;;;;;3.53;1.30;;;;;;;;;;5112553;28;20656;-76
2022/07/13 12:18:12;;;;;;;2.45;1.30;;;;;;;;;;5112129;28;20229;-76
2022/07/13 12:20:40;;;;;;;1.55;1.20;;;;;;;;;;5111857;28;20252;-75
2022/07/13 12:23:07;;;;;;;1.90;1.20;;;;;;;;;;5112054;28;20237;-75
2022/07/13 12:25:35;;;;;;;2.42;1.20;;;;;;;;;;5113391;28;20281;-75
2022/07/13 12:28:04;;;;;;;1.40;1.30;;;;;;;;;;5113505;28;20282;-76
2022/07/13 12:30:32;;;;;;;1.55;1.30;;;;;;;;;;5130313;27;20227;-75
2022/07/13 12:33:00;;;;;;;3.40;1.33;;;;;;;;;;5134194;27;20667;-75
2022/07/13 12:35:29;;;;;;;2.00;1.38;;;;;;;;;;5133577;27;20202;-76
2022/07/13 12:37:57;;;;;;;1.30;1.20;;;;;;;;;;5134430;27;20193;-76
2022/07/13 12:40:43;;;;;;;1.58;1.10;;;;;;;;;;5133883;27;20741;-77
2022/07/13 12:43:17;;;;;;;2.05;1.50;;;;;;;;;;5133479;27;20232;-75
2022/07/13 12:45:45;;;;;;;3.80;2.97;;;;;;;;;;5133531;27;20224;-76
2022/07/13 12:48:16;;;;;;;2.35;1.30;;;;;;;;;;5133939;27;20201;-76
2022/07/13 12:50:55;;;;;;;3.97;1.33;;;;;;;;;;5126437;27;20248;-76
2022/07/13 12:53:22;;;;;;;1.33;1.23;;;;;;;;;;5112827;28;20193;-76
2022/07/13 12:55:53;;;;;;;1.85;1.20;;;;;;;;;;5113268;28;20691;-76
2022/07/13 12:58:22;;;;;;;1.38;1.20;;;;;;;;;;5113564;28;20251;-77
2022/07/13 13:00:49;;;;;;;2.53;1.30;;;;;;;;;;5126142;27;20220;-76
2022/07/13 13:03:17;;;;;;;1.30;1.20;;;;;;;;;;5132907;27;20318;-76
2022/07/13 13:05:45;;;;;;;2.00;1.27;;;;;;;;;;5133434;27;20192;-76
2022/07/13 13:08:12;;;;;;;2.70;1.20;;;;;;;;;;5133328;27;20238;-76
2022/07/13 13:10:40;;;;;;;2.38;1.30;;;;;;;;;;5133522;27;20235;-76
2022/07/13 13:13:08;;;;;;;1.35;1.08;;;;;;;;;;5133849;27;20239;-76
2022/07/13 13:15:35;;;;;;;1.40;1.30;;;;;;;;;;5133250;27;20234;-76
2022/07/13 13:18:02;;;;;;;4.28;1.52;;;;;;;;;;5133078;27;20835;-76
2022/07/13 13:20:29;;;;;;;2.45;1.20;;;;;;;;;;5133578;27;20658;-75
2022/07/13 13:22:58;;;;;;;2.72;1.30;;;;;;;;;;5133255;27;20249;-75
2022/07/13 13:25:25;;;;;;;1.30;1.20;;;;;;;;;;5133466;27;20625;-75
2022/07/13 13:27:52;;;;;;;2.35;1.38;;;;;;;;;;5133191;27;20254;-75
2022/07/13 13:33:05;;;;;;;1.73;1.20;;;;;;;;;;5116751;27;20207;-75
2022/07/13 13:35:32;;;;;;;2.20;1.20;;;;;;;;;;5137403;27;20253;-75
2022/07/13 13:38:01;;;;;;;3.67;1.30;;;;;;;;;;5137169;27;20245;-75
2022/07/13 13:40:28;;;;;;;1.20;1.10;;;;;;;;;;5137719;27;20311;-75
2022/07/13 13:42:55;;;;;;;1.70;1.52;;;;;;;;;;5137277;27;20192;-75
2022/07/13 13:45:23;;;;;;;3.25;1.33;;;;;;;;;;5137327;27;20212;-75
2022/07/13 13:47:50;;;;;;;1.67;1.30;;;;;;;;;;5137080;27;20204;-75
2022/07/13 13:50:17;;;;;;;14.50;1.60;;;;;;;;;;5137096;27;20260;-75
2022/07/13 13:52:44;;;;;;;2.83;1.30;;;;;;;;;;5136916;27;20228;-75
2022/07/13 13:55:13;;;;;;;2.38;1.48;;;;;;;;;;5136904;27;20287;-75
2022/07/13 13:57:40;;;;;;;4.10;1.40;;;;;;;;;;5137023;27;20651;-75
2022/07/13 14:00:11;;;;;;;3.67;1.50;;;;;;;;;;5137028;27;20256;-76
2022/07/13 14:02:38;;;;;;;3.17;1.20;;;;;;;;;;5136480;27;20196;-75
2022/07/13 14:05:06;;;;;;;1.80;1.20;;;;;;;;;;5136879;27;20287;-75
2022/07/13 14:07:33;;;;;;;2.67;1.42;;;;;;;;;;5136932;27;20736;-75
2022/07/13 14:10:01;;;;;;;1.90;1.40;;;;;;;;;;5136757;27;20189;-75
2022/07/13 14:12:30;;;;;;;1.70;1.40;;;;;;;;;;5120456;27;21485;-76
2022/07/13 14:14:57;;;;;;;2.30;1.55;;;;;;;;;;5115906;27;20288;-75
2022/07/13 14:17:24;;;;;;;1.65;1.40;;;;;;;;;;5119006;27;20276;-75
2022/07/13 14:19:51;;;;;;;2.45;1.30;;;;;;;;;;5128888;27;20266;-75
2022/07/13 14:22:19;;;;;;;2.63;1.40;;;;;;;;;;5136917;27;20192;-75
2022/07/13 14:24:46;;;;;;;1.40;1.30;;;;;;;;;;5136827;27;20228;-74
2022/07/13 14:27:15;;;;;;;3.50;1.48;;;;;;;;;;5136442;27;20231;-75
2022/07/13 14:29:43;;;;;;;2.65;1.20;;;;;;;;;;5127954;27;20193;-74
2022/07/13 14:32:10;;;;;;;2.35;1.35;;;;;;;;;;5122368;27;20232;-74
2022/07/13 14:34:38;;;;;;;2.45;1.58;;;;;;;;;;5119432;27;20317;-75
2022/07/13 14:37:07;;;;;;;3.33;1.20;;;;;;;;;;5115882;28;20205;-75
2022/07/13 14:39:34;;;;;;;2.15;1.30;;;;;;;;;;5115818;28;20268;-75
2022/07/13 14:42:02;;;;;;;2.28;1.20;;;;;;;;;;5127327;27;20285;-75
2022/07/13 14:44:29;;;;;;;2.20;1.38;;;;;;;;;;5112609;28;20197;-75
2022/07/13 14:47:22;;;;;;;1.40;1.30;;;;;;;;;;5115797;28;20201;-75
2022/07/13 14:49:49;;;;;;;4.00;1.40;;;;;;;;;;5113974;28;20229;-75
2022/07/13 14:52:16;;;;;;;3.80;1.38;;;;;;;;;;5114988;28;20201;-75
2022/07/13 14:54:44;;;;;;;4.32;1.90;;;;;;;;;;5115116;28;20199;-75
2022/07/13 14:57:11;;;;;;;2.10;1.50;;;;;;;;;;5114811;28;20743;-75
2022/07/13 14:59:38;;;;;;;2.75;1.30;;;;;;;;;;5114991;28;20312;-75
2022/07/13 15:02:05;;;;;;;2.78;1.30;;;;;;;;;;5114353;28;20279;-75